createdAt,value
2022-08-09T00:01:42.316Z,85.22
2022-08-09T00:06:49.478Z,85.30001
2022-08-09T00:11:58.025Z,85.02
2022-08-09T00:17:11.280Z,85.56
2022-08-09T00:22:19.290Z,85.84
2022-08-09T00:27:33.974Z,86.12
2022-08-09T00:32:41.160Z,86.3
2022-08-09T00:37:48.984Z,86.04
2022-08-09T00:42:56.723Z,86.37
2022-08-09T00:48:04.088Z,86.55001
2022-08-09T00:53:11.257Z,87.5
2022-08-09T00:58:19.101Z,86.28
2022-08-09T01:03:26.617Z,86.06
2022-08-09T01:08:33.500Z,85.84
2022-08-09T01:13:40.724Z,85.94001
2022-08-09T01:18:48.522Z,86.32
2022-08-09T01:23:56.218Z,86.43001
2022-08-09T01:29:12.540Z,86.15001
2022-08-09T01:34:19.733Z,85.94001
2022-08-09T01:39:27.647Z,86.73
2022-08-09T01:44:34.803Z,86.95
2022-08-09T01:49:42.569Z,86.31
2022-08-09T01:54:49.763Z,87.37
2022-08-09T02:00:05.274Z,87.5
2022-08-09T02:05:11.899Z,86.3
2022-08-09T02:10:18.879Z,87.08
2022-08-09T02:15:26.529Z,86.77
2022-08-09T02:20:33.491Z,86.96
2022-08-09T02:25:41.314Z,87.22
2022-08-09T02:30:48.551Z,87.19001
2022-08-09T02:35:56.418Z,86.89
2022-08-09T02:41:04.290Z,86.62001
2022-08-09T02:46:12.474Z,86.90001
2022-08-09T02:51:27.579Z,87.37
2022-08-09T02:56:35.686Z,87.49
2022-08-09T03:01:43.687Z,87.18
2022-08-09T03:06:51.126Z,87.38
2022-08-09T03:12:04.060Z,87.6
2022-08-09T03:17:11.936Z,87.95
2022-08-09T03:22:20.689Z,88.23001
2022-08-09T03:28:08.534Z,87.81
2022-08-09T03:33:16.669Z,87.89001
2022-08-09T03:38:24.597Z,87.94001
2022-08-09T03:43:39.097Z,87.31
2022-08-09T03:48:46.673Z,87.27
2022-08-09T03:53:53.856Z,87.31
2022-08-09T03:59:02.435Z,87.58
2022-08-09T04:04:10.963Z,87.7
2022-08-09T04:09:19.051Z,87.92
2022-08-09T04:14:26.936Z,86.44
2022-08-09T04:19:34.871Z,81.94
2022-08-09T04:24:42.504Z,78.06
2022-08-09T04:29:49.900Z,77.38
2022-08-09T04:34:58.139Z,75.27
2022-08-09T04:40:05.362Z,74.25
2022-08-09T04:45:13.112Z,71.21
2022-08-09T04:50:21.404Z,69.71
2022-08-09T04:55:29.427Z,66.47
2022-08-09T05:00:38.480Z,65.71
2022-08-09T05:05:46.732Z,61.65
2022-08-09T05:10:53.659Z,61.78
2022-08-09T05:16:02.003Z,60.94
2022-08-09T05:21:10.128Z,60.52
2022-08-09T05:26:18.975Z,58.92
2022-08-09T05:31:26.927Z,60.46
2022-08-09T05:36:34.131Z,58.93
2022-08-09T05:41:41.338Z,58.4
2022-08-09T05:46:49.173Z,59.25
2022-08-09T05:51:58.055Z,58.86
2022-08-09T05:57:05.670Z,59.09
2022-08-09T06:02:14.081Z,59.0
2022-08-09T06:07:21.946Z,58.94
2022-08-09T06:12:31.053Z,60.26
2022-08-09T06:17:38.810Z,60.16
2022-08-09T06:22:47.193Z,59.27
2022-08-09T06:27:54.458Z,57.78
2022-08-09T06:33:03.291Z,58.35
2022-08-09T06:38:10.935Z,57.32
2022-08-09T06:43:17.978Z,58.28
2022-08-09T06:48:25.177Z,58.64
2022-08-09T06:53:32.646Z,57.49
2022-08-09T06:58:39.891Z,56.42
2022-08-09T07:03:47.415Z,56.78
2022-08-09T07:08:54.911Z,56.18
2022-08-09T07:14:02.538Z,55.86
2022-08-09T07:19:09.030Z,57.43
2022-08-09T07:24:16.853Z,55.37
2022-08-09T07:29:24.406Z,55.32
2022-08-09T07:34:31.034Z,53.59
2022-08-09T07:39:39.849Z,53.04
2022-08-09T07:44:48.731Z,52.02
2022-08-09T07:49:56.057Z,50.72
2022-08-09T07:55:03.348Z,49.7
2022-08-09T08:00:11.736Z,49.58
2022-08-09T08:05:19.623Z,49.04
2022-08-09T08:10:32.682Z,50.5
2022-08-09T08:15:40.306Z,49.89
2022-08-09T08:20:47.774Z,47.32
2022-08-09T08:25:55.430Z,48.48
2022-08-09T08:31:02.637Z,47.56
2022-08-09T08:36:10.461Z,45.31
2022-08-09T08:41:18.025Z,45.36
2022-08-09T08:46:26.015Z,47.56
2022-08-09T08:51:34.618Z,48.52
2022-08-09T08:56:41.183Z,47.88
2022-08-09T09:01:49.528Z,48.14
2022-08-09T09:06:58.984Z,48.76
2022-08-09T09:12:05.651Z,48.8
2022-08-09T09:17:12.540Z,49.35
2022-08-09T09:22:20.643Z,48.98
2022-08-09T09:27:27.574Z,48.58
2022-08-09T09:32:36.475Z,46.74
2022-08-09T09:37:43.211Z,46.42
2022-08-09T09:42:51.186Z,45.06
2022-08-09T09:47:58.808Z,45.53
2022-08-09T09:53:07.252Z,44.99
2022-08-09T09:58:14.165Z,46.03
2022-08-09T10:03:21.218Z,45.02
2022-08-09T10:08:29.517Z,43.44
2022-08-09T10:13:36.855Z,44.09
2022-08-09T10:18:44.700Z,44.34
2022-08-09T10:23:52.922Z,40.42
2022-08-09T10:29:00.524Z,40.48
2022-08-09T10:34:06.938Z,38.76
2022-08-09T10:39:14.949Z,40.98
2022-08-09T10:44:23.261Z,40.44
2022-08-09T10:49:31.070Z,38.62
2022-08-09T10:54:37.019Z,38.77
2022-08-09T10:59:44.896Z,39.56
2022-08-09T11:04:51.518Z,40.19
2022-08-09T11:09:59.586Z,37.88
2022-08-09T11:15:06.567Z,39.19
2022-08-09T11:20:13.630Z,36.67
2022-08-09T11:25:21.240Z,37.75
2022-08-09T11:30:33.855Z,35.11
2022-08-09T11:35:40.028Z,36.86
2022-08-09T11:40:46.943Z,36.76
2022-08-09T11:45:54.179Z,38.28
2022-08-09T11:51:01.978Z,37.66
2022-08-09T11:56:09.979Z,36.6
2022-08-09T12:01:17.524Z,37.92
2022-08-09T12:06:25.481Z,39.56
2022-08-09T12:11:34.069Z,38.16
2022-08-09T12:16:41.053Z,36.92
2022-08-09T12:21:48.551Z,39.81
2022-08-09T12:26:55.595Z,37.84
2022-08-09T12:32:03.419Z,36.87
2022-08-09T12:37:10.622Z,38.23
2022-08-09T12:42:18.742Z,37.47
2022-08-09T12:47:27.689Z,36.63
2022-08-09T12:52:34.943Z,37.69
2022-08-09T12:57:42.090Z,39.62
2022-08-09T13:02:49.213Z,35.88
2022-08-09T13:07:57.523Z,36.03
2022-08-09T13:13:04.817Z,37.54
2022-08-09T13:18:13.070Z,38.17
2022-08-09T13:23:21.559Z,37.65
2022-08-09T13:28:28.394Z,35.63
2022-08-09T13:33:35.585Z,35.52
2022-08-09T13:38:43.633Z,33.1
2022-08-09T13:43:52.037Z,33.84
2022-08-09T13:48:58.679Z,34.43
2022-08-09T13:54:07.579Z,34.43
2022-08-09T13:59:15.619Z,32.59
2022-08-09T14:04:22.625Z,34.63
2022-08-09T14:09:31.120Z,34.0
2022-08-09T14:14:40.580Z,33.63
2022-08-09T14:19:48.056Z,33.33
2022-08-09T14:24:56.470Z,34.18
2022-08-09T14:30:04.137Z,34.49
2022-08-09T14:35:12.725Z,35.72
2022-08-09T14:40:19.498Z,35.78
2022-08-09T14:45:26.357Z,36.6
2022-08-09T14:50:34.963Z,36.74
2022-08-09T14:55:41.821Z,37.21
2022-08-09T15:00:49.023Z,38.04
2022-08-09T15:05:57.005Z,38.65
2022-08-09T15:11:05.195Z,38.08
2022-08-09T15:16:20.177Z,39.31
2022-08-09T15:21:29.547Z,37.46
2022-08-09T15:26:38.155Z,38.56
2022-08-09T15:31:46.566Z,36.41
2022-08-09T15:36:54.958Z,35.02
2022-08-09T15:42:01.474Z,36.0
2022-08-09T15:47:09.142Z,37.43
2022-08-09T15:52:17.374Z,37.85
2022-08-09T15:57:25.335Z,37.62
2022-08-09T16:02:32.702Z,37.52
2022-08-09T16:07:40.382Z,38.35
2022-08-09T16:12:48.440Z,38.88
2022-08-09T16:17:56.630Z,39.46
2022-08-09T16:23:04.474Z,40.09
2022-08-09T16:28:11.738Z,41.44
2022-08-09T16:33:19.307Z,41.72
2022-08-09T16:38:26.013Z,41.86
2022-08-09T16:43:32.698Z,43.74
2022-08-09T16:48:39.633Z,42.28
2022-08-09T16:53:48.045Z,42.3
2022-08-09T16:58:55.214Z,42.77
2022-08-09T17:04:02.380Z,42.96
2022-08-09T17:09:08.697Z,43.52
2022-08-09T17:14:16.648Z,43.69
2022-08-09T17:19:23.991Z,43.83
2022-08-09T17:24:30.300Z,43.58
2022-08-09T17:29:39.287Z,43.78
2022-08-09T17:34:47.431Z,42.94
2022-08-09T17:39:55.820Z,43.26
2022-08-09T17:45:03.795Z,43.29
2022-08-09T17:50:11.432Z,43.28
2022-08-09T17:55:20.055Z,43.68
2022-08-09T18:00:27.196Z,43.9
2022-08-09T18:05:35.435Z,43.85
2022-08-09T18:10:43.798Z,44.28
2022-08-09T18:15:51.257Z,44.62
2022-08-09T18:20:58.815Z,45.21
2022-08-09T18:26:06.648Z,45.48
2022-08-09T18:31:14.179Z,46.22
2022-08-09T18:36:23.126Z,47.63
2022-08-09T18:41:31.010Z,48.96
2022-08-09T18:46:37.694Z,50.0
2022-08-09T18:51:44.523Z,50.56
2022-08-09T18:56:51.766Z,51.18
2022-08-09T19:01:59.283Z,52.11
2022-08-09T19:07:07.670Z,53.04
2022-08-09T19:12:15.116Z,54.42
2022-08-09T19:17:23.282Z,55.62
2022-08-09T19:22:31.743Z,55.66
2022-08-09T19:27:39.198Z,57.04
2022-08-09T19:32:47.944Z,57.4
2022-08-09T19:37:56.017Z,57.9
2022-08-09T19:43:03.266Z,58.4
2022-08-09T19:48:10.864Z,58.64
2022-08-09T19:53:17.893Z,59.1
2022-08-09T19:58:25.017Z,59.07
2022-08-09T20:03:32.152Z,59.12
2022-08-09T20:08:39.951Z,58.77
2022-08-09T20:13:47.857Z,59.35
2022-08-09T20:18:54.936Z,59.96
2022-08-09T20:24:03.418Z,59.78
2022-08-09T20:29:09.970Z,59.56
2022-08-09T20:34:17.808Z,59.26
2022-08-09T20:39:26.172Z,59.07
2022-08-09T20:44:35.057Z,59.31
2022-08-09T20:49:42.296Z,60.02
2022-08-09T20:54:50.322Z,60.71
2022-08-09T21:00:00.200Z,61.59
2022-08-09T21:05:09.215Z,61.89
2022-08-09T21:10:17.681Z,62.38
2022-08-09T21:15:26.161Z,62.94
2022-08-09T21:20:33.485Z,62.92
2022-08-09T21:25:41.365Z,63.2
2022-08-09T21:30:49.501Z,63.85
2022-08-09T21:35:58.299Z,64.84
2022-08-09T21:41:06.160Z,65.22
2022-08-09T21:46:13.333Z,66.06
2022-08-09T21:51:21.111Z,66.32
2022-08-09T21:56:31.488Z,66.92
2022-08-09T22:01:41.170Z,67.06
2022-08-09T22:06:48.563Z,67.27
2022-08-09T22:11:56.597Z,67.41001
2022-08-09T22:17:05.290Z,67.46
2022-08-09T22:22:13.650Z,68.49
2022-08-09T22:27:22.000Z,68.78
2022-08-09T22:32:30.358Z,68.87001
2022-08-09T22:37:38.205Z,69.76
2022-08-09T22:42:45.846Z,70.71
2022-08-09T22:47:54.974Z,71.55
2022-08-09T22:53:03.364Z,72.48001
2022-08-09T22:58:11.728Z,72.99
2022-08-09T23:03:21.595Z,73.58
2022-08-09T23:08:30.094Z,73.94001
2022-08-09T23:13:38.468Z,73.64
2022-08-09T23:18:46.585Z,73.72
2022-08-09T23:23:53.822Z,74.05
2022-08-09T23:29:03.445Z,74.38
2022-08-09T23:34:10.779Z,74.05
2022-08-09T23:39:19.788Z,74.16
2022-08-09T23:44:27.891Z,74.71
2022-08-09T23:49:34.934Z,75.03
2022-08-09T23:54:42.728Z,75.62
2022-08-09T23:59:50.919Z,75.58
